sensor_id;sensor_type;location;lat;lon;timestamp;P1;durP1;ratioP1;P2;durP2;ratioP2
20497;SDS011;10407;53.238;10.448;2023-01-29T00:01:28;94.00;;;16.20;;
20497;SDS011;10407;53.238;10.448;2023-01-29T00:03:56;98.40;;;17.50;;
20497;SDS011;10407;53.238;10.448;2023-01-29T00:06:24;95.50;;;16.87;;
20497;SDS011;10407;53.238;10.448;2023-01-29T00:08:51;93.20;;;15.67;;
20497;SDS011;10407;53.238;10.448;2023-01-29T00:11:19;97.33;;;16.67;;
20497;SDS011;10407;53.238;10.448;2023-01-29T00:13:46;93.60;;;16.50;;
20497;SDS011;10407;53.238;10.448;2023-01-29T00:16:14;93.60;;;17.20;;
20497;SDS011;10407;53.238;10.448;2023-01-29T00:18:42;95.80;;;15.80;;
20497;SDS011;10407;53.238;10.448;2023-01-29T00:21:11;97.60;;;17.20;;
20497;SDS011;10407;53.238;10.448;2023-01-29T00:23:40;101.73;;;17.13;;
20497;SDS011;10407;53.238;10.448;2023-01-29T00:26:08;96.07;;;18.30;;
20497;SDS011;10407;53.238;10.448;2023-01-29T00:28:36;99.10;;;16.20;;
20497;SDS011;10407;53.238;10.448;2023-01-29T00:31:11;94.80;;;17.37;;
20497;SDS011;10407;53.238;10.448;2023-01-29T00:33:40;94.60;;;16.87;;
20497;SDS011;10407;53.238;10.448;2023-01-29T00:36:09;94.10;;;16.70;;
20497;SDS011;10407;53.238;10.448;2023-01-29T00:38:38;96.17;;;17.00;;
20497;SDS011;10407;53.238;10.448;2023-01-29T00:41:06;99.10;;;17.47;;
20497;SDS011;10407;53.238;10.448;2023-01-29T00:43:53;95.70;;;16.60;;
20497;SDS011;10407;53.238;10.448;2023-01-29T00:46:39;94.90;;;16.63;;
20497;SDS011;10407;53.238;10.448;2023-01-29T00:49:07;95.33;;;16.00;;
20497;SDS011;10407;53.238;10.448;2023-01-29T00:51:35;99.50;;;18.13;;
20497;SDS011;10407;53.238;10.448;2023-01-29T00:54:04;93.47;;;15.87;;
20497;SDS011;10407;53.238;10.448;2023-01-29T00:56:35;98.10;;;16.40;;
20497;SDS011;10407;53.238;10.448;2023-01-29T00:59:03;101.40;;;18.93;;
20497;SDS011;10407;53.238;10.448;2023-01-29T01:01:31;97.43;;;18.30;;
20497;SDS011;10407;53.238;10.448;2023-01-29T01:04:16;91.30;;;14.90;;
20497;SDS011;10407;53.238;10.448;2023-01-29T01:06:44;96.10;;;16.80;;
20497;SDS011;10407;53.238;10.448;2023-01-29T01:09:11;95.13;;;16.83;;
20497;SDS011;10407;53.238;10.448;2023-01-29T01:11:57;97.87;;;18.37;;
20497;SDS011;10407;53.238;10.448;2023-01-29T01:14:24;93.33;;;17.37;;
20497;SDS011;10407;53.238;10.448;2023-01-29T01:16:52;95.07;;;16.40;;
20497;SDS011;10407;53.238;10.448;2023-01-29T01:19:19;98.40;;;17.40;;
20497;SDS011;10407;53.238;10.448;2023-01-29T01:21:47;97.00;;;17.40;;
20497;SDS011;10407;53.238;10.448;2023-01-29T01:24:14;93.63;;;17.43;;
20497;SDS011;10407;53.238;10.448;2023-01-29T01:26:42;96.27;;;16.73;;
20497;SDS011;10407;53.238;10.448;2023-01-29T01:29:09;95.80;;;17.43;;
20497;SDS011;10407;53.238;10.448;2023-01-29T01:31:37;97.43;;;19.10;;
20497;SDS011;10407;53.238;10.448;2023-01-29T01:34:04;94.77;;;18.70;;
20497;SDS011;10407;53.238;10.448;2023-01-29T01:36:32;96.47;;;18.53;;
20497;SDS011;10407;53.238;10.448;2023-01-29T01:38:59;98.80;;;16.77;;
20497;SDS011;10407;53.238;10.448;2023-01-29T01:41:27;96.10;;;17.93;;
20497;SDS011;10407;53.238;10.448;2023-01-29T01:43:57;95.40;;;17.30;;
20497;SDS011;10407;53.238;10.448;2023-01-29T01:46:30;96.53;;;16.43;;
20497;SDS011;10407;53.238;10.448;2023-01-29T01:51:38;91.90;;;14.50;;
20497;SDS011;10407;53.238;10.448;2023-01-29T01:54:08;96.33;;;18.13;;
20497;SDS011;10407;53.238;10.448;2023-01-29T01:56:39;94.97;;;17.20;;
20497;SDS011;10407;53.238;10.448;2023-01-29T01:59:13;95.30;;;17.60;;
20497;SDS011;10407;53.238;10.448;2023-01-29T02:01:38;93.17;;;15.57;;
20497;SDS011;10407;53.238;10.448;2023-01-29T02:04:12;95.97;;;16.97;;
20497;SDS011;10407;53.238;10.448;2023-01-29T02:07:00;89.67;;;13.70;;
20497;SDS011;10407;53.238;10.448;2023-01-29T02:09:50;101.27;;;16.30;;
20497;SDS011;10407;53.238;10.448;2023-01-29T02:12:19;92.50;;;15.97;;
20497;SDS011;10407;53.238;10.448;2023-01-29T02:14:48;95.70;;;15.73;;
20497;SDS011;10407;53.238;10.448;2023-01-29T02:17:17;91.70;;;15.37;;
20497;SDS011;10407;53.238;10.448;2023-01-29T02:20:02;94.80;;;16.30;;
20497;SDS011;10407;53.238;10.448;2023-01-29T02:22:37;98.33;;;16.13;;
20497;SDS011;10407;53.238;10.448;2023-01-29T02:25:09;98.10;;;17.30;;
20497;SDS011;10407;53.238;10.448;2023-01-29T02:30:49;94.20;;;14.77;;
20497;SDS011;10407;53.238;10.448;2023-01-29T02:33:47;89.80;;;15.27;;
20497;SDS011;10407;53.238;10.448;2023-01-29T02:36:37;93.07;;;16.03;;
20497;SDS011;10407;53.238;10.448;2023-01-29T02:42:20;91.17;;;15.20;;
20497;SDS011;10407;53.238;10.448;2023-01-29T02:45:09;95.27;;;16.70;;
20497;SDS011;10407;53.238;10.448;2023-01-29T02:47:35;96.73;;;16.93;;
20497;SDS011;10407;53.238;10.448;2023-01-29T02:50:20;93.47;;;16.67;;
20497;SDS011;10407;53.238;10.448;2023-01-29T02:55:51;93.40;;;15.80;;
20497;SDS011;10407;53.238;10.448;2023-01-29T03:00:49;93.60;;;16.67;;
20497;SDS011;10407;53.238;10.448;2023-01-29T03:05:55;97.27;;;17.93;;
20497;SDS011;10407;53.238;10.448;2023-01-29T03:08:27;96.13;;;17.43;;
20497;SDS011;10407;53.238;10.448;2023-01-29T03:11:00;95.40;;;17.53;;
20497;SDS011;10407;53.238;10.448;2023-01-29T03:14:12;95.50;;;17.20;;
20497;SDS011;10407;53.238;10.448;2023-01-29T03:16:51;97.33;;;17.30;;
20497;SDS011;10407;53.238;10.448;2023-01-29T03:18:39;97.40;;;17.07;;
20497;SDS011;10407;53.238;10.448;2023-01-29T03:21:16;99.73;;;17.60;;
20497;SDS011;10407;53.238;10.448;2023-01-29T03:23:58;97.30;;;16.97;;
20497;SDS011;10407;53.238;10.448;2023-01-29T03:26:44;97.27;;;16.80;;
20497;SDS011;10407;53.238;10.448;2023-01-29T03:29:30;96.17;;;17.00;;
20497;SDS011;10407;53.238;10.448;2023-01-29T03:32:17;101.63;;;17.03;;
20497;SDS011;10407;53.238;10.448;2023-01-29T03:34:49;99.70;;;18.03;;
20497;SDS011;10407;53.238;10.448;2023-01-29T03:40:07;96.93;;;17.00;;
20497;SDS011;10407;53.238;10.448;2023-01-29T03:56:39;94.10;;;16.10;;
20497;SDS011;10407;53.238;10.448;2023-01-29T03:59:40;104.37;;;17.80;;
20497;SDS011;10407;53.238;10.448;2023-01-29T04:02:12;99.83;;;17.80;;
20497;SDS011;10407;53.238;10.448;2023-01-29T04:04:43;95.03;;;16.70;;
20497;SDS011;10407;53.238;10.448;2023-01-29T04:07:12;94.17;;;16.67;;
20497;SDS011;10407;53.238;10.448;2023-01-29T04:09:46;95.07;;;17.37;;
20497;SDS011;10407;53.238;10.448;2023-01-29T04:12:20;95.77;;;18.23;;
20497;SDS011;10407;53.238;10.448;2023-01-29T04:14:52;95.20;;;16.60;;
20497;SDS011;10407;53.238;10.448;2023-01-29T04:17:22;91.70;;;16.10;;
20497;SDS011;10407;53.238;10.448;2023-01-29T04:20:06;96.50;;;17.87;;
20497;SDS011;10407;53.238;10.448;2023-01-29T04:22:35;94.57;;;16.97;;
20497;SDS011;10407;53.238;10.448;2023-01-29T04:25:09;107.20;;;18.00;;
20497;SDS011;10407;53.238;10.448;2023-01-29T04:28:43;93.20;;;15.70;;
20497;SDS011;10407;53.238;10.448;2023-01-29T04:36:26;95.93;;;17.30;;
20497;SDS011;10407;53.238;10.448;2023-01-29T04:38:56;100.53;;;19.50;;
20497;SDS011;10407;53.238;10.448;2023-01-29T04:41:45;97.00;;;17.47;;
20497;SDS011;10407;53.238;10.448;2023-01-29T04:44:20;100.77;;;17.80;;
20497;SDS011;10407;53.238;10.448;2023-01-29T04:54:47;93.53;;;16.87;;
20497;SDS011;10407;53.238;10.448;2023-01-29T04:59:46;97.00;;;17.53;;
20497;SDS011;10407;53.238;10.448;2023-01-29T05:02:16;98.90;;;19.03;;
20497;SDS011;10407;53.238;10.448;2023-01-29T05:04:47;96.97;;;17.47;;
20497;SDS011;10407;53.238;10.448;2023-01-29T05:07:16;102.17;;;17.23;;
20497;SDS011;10407;53.238;10.448;2023-01-29T05:09:46;99.00;;;17.97;;
20497;SDS011;10407;53.238;10.448;2023-01-29T05:12:15;96.67;;;18.63;;
20497;SDS011;10407;53.238;10.448;2023-01-29T05:14:44;98.23;;;18.30;;
20497;SDS011;10407;53.238;10.448;2023-01-29T05:17:14;101.53;;;20.30;;
20497;SDS011;10407;53.238;10.448;2023-01-29T05:19:44;104.20;;;18.73;;
20497;SDS011;10407;53.238;10.448;2023-01-29T05:22:13;100.53;;;19.53;;
20497;SDS011;10407;53.238;10.448;2023-01-29T05:24:43;101.10;;;20.40;;
20497;SDS011;10407;53.238;10.448;2023-01-29T05:27:14;98.20;;;18.27;;
20497;SDS011;10407;53.238;10.448;2023-01-29T05:30:02;98.47;;;17.97;;
20497;SDS011;10407;53.238;10.448;2023-01-29T05:32:30;100.27;;;18.70;;
20497;SDS011;10407;53.238;10.448;2023-01-29T05:34:58;100.27;;;19.60;;
20497;SDS011;10407;53.238;10.448;2023-01-29T05:37:25;100.87;;;20.40;;
20497;SDS011;10407;53.238;10.448;2023-01-29T05:39:53;97.43;;;18.40;;
20497;SDS011;10407;53.238;10.448;2023-01-29T05:42:21;101.33;;;20.17;;
20497;SDS011;10407;53.238;10.448;2023-01-29T05:44:48;102.43;;;18.53;;
20497;SDS011;10407;53.238;10.448;2023-01-29T05:47:19;100.17;;;17.77;;
20497;SDS011;10407;53.238;10.448;2023-01-29T05:49:47;95.30;;;16.17;;
20497;SDS011;10407;53.238;10.448;2023-01-29T05:52:14;95.57;;;15.90;;
20497;SDS011;10407;53.238;10.448;2023-01-29T05:54:42;99.10;;;18.33;;
20497;SDS011;10407;53.238;10.448;2023-01-29T05:57:09;98.33;;;18.60;;
20497;SDS011;10407;53.238;10.448;2023-01-29T05:59:37;97.20;;;18.23;;
20497;SDS011;10407;53.238;10.448;2023-01-29T06:02:04;95.20;;;18.43;;
20497;SDS011;10407;53.238;10.448;2023-01-29T06:04:32;96.27;;;17.27;;
20497;SDS011;10407;53.238;10.448;2023-01-29T06:06:59;96.47;;;17.17;;
20497;SDS011;10407;53.238;10.448;2023-01-29T06:09:28;95.43;;;17.73;;
20497;SDS011;10407;53.238;10.448;2023-01-29T06:11:55;99.30;;;17.70;;
20497;SDS011;10407;53.238;10.448;2023-01-29T06:14:23;100.27;;;17.83;;
20497;SDS011;10407;53.238;10.448;2023-01-29T06:16:50;98.70;;;18.00;;
20497;SDS011;10407;53.238;10.448;2023-01-29T06:19:18;100.73;;;18.83;;
20497;SDS011;10407;53.238;10.448;2023-01-29T06:21:45;101.13;;;19.07;;
20497;SDS011;10407;53.238;10.448;2023-01-29T06:24:13;99.23;;;19.20;;
20497;SDS011;10407;53.238;10.448;2023-01-29T06:26:40;96.20;;;17.10;;
20497;SDS011;10407;53.238;10.448;2023-01-29T06:29:08;108.10;;;19.10;;
20497;SDS011;10407;53.238;10.448;2023-01-29T06:31:35;102.67;;;18.67;;
20497;SDS011;10407;53.238;10.448;2023-01-29T06:34:03;95.67;;;16.87;;
20497;SDS011;10407;53.238;10.448;2023-01-29T06:36:30;97.10;;;18.20;;
20497;SDS011;10407;53.238;10.448;2023-01-29T06:38:58;98.03;;;17.77;;
20497;SDS011;10407;53.238;10.448;2023-01-29T06:41:25;98.37;;;18.43;;
20497;SDS011;10407;53.238;10.448;2023-01-29T06:43:53;96.07;;;16.70;;
20497;SDS011;10407;53.238;10.448;2023-01-29T06:46:20;97.43;;;18.90;;
20497;SDS011;10407;53.238;10.448;2023-01-29T06:48:48;102.97;;;18.10;;
20497;SDS011;10407;53.238;10.448;2023-01-29T06:51:16;96.57;;;18.10;;
20497;SDS011;10407;53.238;10.448;2023-01-29T06:53:43;102.70;;;19.10;;
20497;SDS011;10407;53.238;10.448;2023-01-29T06:56:11;101.67;;;19.33;;
20497;SDS011;10407;53.238;10.448;2023-01-29T06:58:38;101.00;;;18.83;;
20497;SDS011;10407;53.238;10.448;2023-01-29T07:01:09;99.97;;;19.13;;
20497;SDS011;10407;53.238;10.448;2023-01-29T07:03:38;101.10;;;18.00;;
20497;SDS011;10407;53.238;10.448;2023-01-29T07:06:07;100.80;;;19.50;;
20497;SDS011;10407;53.238;10.448;2023-01-29T07:08:37;98.60;;;18.43;;
20497;SDS011;10407;53.238;10.448;2023-01-29T07:11:05;99.90;;;19.00;;
20497;SDS011;10407;53.238;10.448;2023-01-29T07:13:33;98.50;;;18.90;;
20497;SDS011;10407;53.238;10.448;2023-01-29T07:16:01;97.87;;;18.07;;
20497;SDS011;10407;53.238;10.448;2023-01-29T07:18:30;106.27;;;20.17;;
20497;SDS011;10407;53.238;10.448;2023-01-29T07:20:58;99.97;;;18.73;;
20497;SDS011;10407;53.238;10.448;2023-01-29T07:23:27;97.57;;;18.70;;
20497;SDS011;10407;53.238;10.448;2023-01-29T07:25:54;98.30;;;18.40;;
20497;SDS011;10407;53.238;10.448;2023-01-29T07:28:22;98.00;;;17.97;;
20497;SDS011;10407;53.238;10.448;2023-01-29T07:30:53;98.60;;;18.77;;
20497;SDS011;10407;53.238;10.448;2023-01-29T07:33:24;99.87;;;18.50;;
20497;SDS011;10407;53.238;10.448;2023-01-29T07:35:52;101.07;;;19.30;;
20497;SDS011;10407;53.238;10.448;2023-01-29T07:38:20;98.47;;;18.23;;
20497;SDS011;10407;53.238;10.448;2023-01-29T07:40:47;102.03;;;18.20;;
20497;SDS011;10407;53.238;10.448;2023-01-29T07:43:15;100.43;;;19.00;;
20497;SDS011;10407;53.238;10.448;2023-01-29T07:45:42;100.67;;;18.57;;
20497;SDS011;10407;53.238;10.448;2023-01-29T07:48:11;99.80;;;18.50;;
20497;SDS011;10407;53.238;10.448;2023-01-29T07:50:39;98.47;;;18.83;;
20497;SDS011;10407;53.238;10.448;2023-01-29T07:53:12;97.93;;;17.97;;
20497;SDS011;10407;53.238;10.448;2023-01-29T07:55:43;103.73;;;19.97;;
20497;SDS011;10407;53.238;10.448;2023-01-29T07:58:11;103.33;;;21.03;;
20497;SDS011;10407;53.238;10.448;2023-01-29T08:00:39;104.40;;;21.73;;
20497;SDS011;10407;53.238;10.448;2023-01-29T08:03:08;100.37;;;19.90;;
20497;SDS011;10407;53.238;10.448;2023-01-29T08:05:41;98.07;;;18.70;;
20497;SDS011;10407;53.238;10.448;2023-01-29T08:08:09;103.87;;;20.47;;
20497;SDS011;10407;53.238;10.448;2023-01-29T08:10:38;103.83;;;21.07;;
20497;SDS011;10407;53.238;10.448;2023-01-29T08:13:06;102.00;;;19.90;;
20497;SDS011;10407;53.238;10.448;2023-01-29T08:15:34;100.50;;;18.80;;
20497;SDS011;10407;53.238;10.448;2023-01-29T08:18:02;103.30;;;20.07;;
20497;SDS011;10407;53.238;10.448;2023-01-29T08:20:30;102.27;;;20.47;;
20497;SDS011;10407;53.238;10.448;2023-01-29T08:22:58;105.00;;;20.43;;
20497;SDS011;10407;53.238;10.448;2023-01-29T08:25:27;103.27;;;20.70;;
20497;SDS011;10407;53.238;10.448;2023-01-29T08:27:55;104.53;;;20.57;;
20497;SDS011;10407;53.238;10.448;2023-01-29T08:30:25;103.37;;;21.30;;
20497;SDS011;10407;53.238;10.448;2023-01-29T08:32:54;98.27;;;18.40;;
20497;SDS011;10407;53.238;10.448;2023-01-29T08:35:22;101.97;;;19.23;;
20497;SDS011;10407;53.238;10.448;2023-01-29T08:37:54;103.47;;;20.30;;
20497;SDS011;10407;53.238;10.448;2023-01-29T08:40:27;101.10;;;18.53;;
20497;SDS011;10407;53.238;10.448;2023-01-29T08:42:57;99.60;;;20.43;;
20497;SDS011;10407;53.238;10.448;2023-01-29T08:45:26;100.03;;;19.23;;
20497;SDS011;10407;53.238;10.448;2023-01-29T08:47:53;103.43;;;19.60;;
20497;SDS011;10407;53.238;10.448;2023-01-29T08:50:21;102.23;;;20.83;;
20497;SDS011;10407;53.238;10.448;2023-01-29T08:52:48;99.23;;;20.03;;
20497;SDS011;10407;53.238;10.448;2023-01-29T08:55:16;100.53;;;19.13;;
20497;SDS011;10407;53.238;10.448;2023-01-29T08:57:44;103.70;;;21.83;;
20497;SDS011;10407;53.238;10.448;2023-01-29T09:00:12;104.73;;;20.73;;
20497;SDS011;10407;53.238;10.448;2023-01-29T09:02:40;101.97;;;20.00;;
20497;SDS011;10407;53.238;10.448;2023-01-29T09:05:08;106.40;;;22.47;;
20497;SDS011;10407;53.238;10.448;2023-01-29T09:07:36;104.27;;;19.70;;
20497;SDS011;10407;53.238;10.448;2023-01-29T09:10:03;108.43;;;21.30;;
20497;SDS011;10407;53.238;10.448;2023-01-29T09:12:31;105.47;;;21.60;;
20497;SDS011;10407;53.238;10.448;2023-01-29T09:14:59;105.37;;;21.37;;
20497;SDS011;10407;53.238;10.448;2023-01-29T09:17:27;108.47;;;21.37;;
20497;SDS011;10407;53.238;10.448;2023-01-29T09:19:54;107.90;;;23.10;;
20497;SDS011;10407;53.238;10.448;2023-01-29T09:22:23;109.57;;;22.90;;
20497;SDS011;10407;53.238;10.448;2023-01-29T09:24:51;106.80;;;22.37;;
20497;SDS011;10407;53.238;10.448;2023-01-29T09:27:18;112.07;;;23.80;;
20497;SDS011;10407;53.238;10.448;2023-01-29T09:29:46;112.13;;;24.53;;
20497;SDS011;10407;53.238;10.448;2023-01-29T09:32:13;110.73;;;24.03;;
20497;SDS011;10407;53.238;10.448;2023-01-29T09:34:41;113.00;;;24.67;;
20497;SDS011;10407;53.238;10.448;2023-01-29T09:37:08;120.43;;;27.10;;
20497;SDS011;10407;53.238;10.448;2023-01-29T09:39:36;114.20;;;23.73;;
20497;SDS011;10407;53.238;10.448;2023-01-29T09:44:58;113.03;;;25.20;;
20497;SDS011;10407;53.238;10.448;2023-01-29T09:47:43;121.27;;;26.93;;
20497;SDS011;10407;53.238;10.448;2023-01-29T09:52:50;113.67;;;25.97;;
20497;SDS011;10407;53.238;10.448;2023-01-29T09:55:26;119.50;;;25.50;;
20497;SDS011;10407;53.238;10.448;2023-01-29T09:57:58;118.73;;;25.70;;
20497;SDS011;10407;53.238;10.448;2023-01-29T10:00:45;116.20;;;24.70;;
20497;SDS011;10407;53.238;10.448;2023-01-29T10:03:34;113.90;;;25.60;;
20497;SDS011;10407;53.238;10.448;2023-01-29T10:06:26;116.57;;;24.77;;
20497;SDS011;10407;53.238;10.448;2023-01-29T10:09:18;116.40;;;25.10;;
20497;SDS011;10407;53.238;10.448;2023-01-29T10:11:53;113.47;;;25.40;;
20497;SDS011;10407;53.238;10.448;2023-01-29T10:14:41;111.80;;;23.90;;
20497;SDS011;10407;53.238;10.448;2023-01-29T10:22:58;117.93;;;26.87;;
20497;SDS011;10407;53.238;10.448;2023-01-29T10:25:28;109.00;;;23.20;;
20497;SDS011;10407;53.238;10.448;2023-01-29T10:27:57;117.60;;;25.07;;
20497;SDS011;10407;53.238;10.448;2023-01-29T10:30:36;121.80;;;24.83;;
20497;SDS011;10407;53.238;10.448;2023-01-29T10:33:08;113.87;;;25.43;;
20497;SDS011;10407;53.238;10.448;2023-01-29T10:35:43;109.60;;;24.50;;
20497;SDS011;10407;53.238;10.448;2023-01-29T10:57:51;111.00;;;23.77;;
20497;SDS011;10407;53.238;10.448;2023-01-29T11:00:20;108.37;;;24.60;;
20497;SDS011;10407;53.238;10.448;2023-01-29T11:02:51;107.07;;;23.60;;
20497;SDS011;10407;53.238;10.448;2023-01-29T11:05:24;104.20;;;21.53;;
20497;SDS011;10407;53.238;10.448;2023-01-29T11:07:56;107.87;;;23.03;;
20497;SDS011;10407;53.238;10.448;2023-01-29T11:10:29;103.20;;;20.13;;
20497;SDS011;10407;53.238;10.448;2023-01-29T11:12:59;109.00;;;21.23;;
20497;SDS011;10407;53.238;10.448;2023-01-29T11:15:29;106.87;;;23.20;;
20497;SDS011;10407;53.238;10.448;2023-01-29T11:18:12;108.20;;;21.57;;
20497;SDS011;10407;53.238;10.448;2023-01-29T11:20:38;103.87;;;20.83;;
20497;SDS011;10407;53.238;10.448;2023-01-29T11:23:27;104.13;;;21.17;;
20497;SDS011;10407;53.238;10.448;2023-01-29T11:25:58;101.50;;;20.57;;
20497;SDS011;10407;53.238;10.448;2023-01-29T11:31:24;109.03;;;21.53;;
20497;SDS011;10407;53.238;10.448;2023-01-29T11:34:17;106.73;;;23.10;;
20497;SDS011;10407;53.238;10.448;2023-01-29T11:36:38;104.03;;;20.37;;
20497;SDS011;10407;53.238;10.448;2023-01-29T11:39:08;107.17;;;22.47;;
20497;SDS011;10407;53.238;10.448;2023-01-29T11:41:41;104.20;;;20.50;;
20497;SDS011;10407;53.238;10.448;2023-01-29T11:47:08;103.60;;;20.40;;
20497;SDS011;10407;53.238;10.448;2023-01-29T11:49:38;108.03;;;22.23;;
20497;SDS011;10407;53.238;10.448;2023-01-29T11:52:08;105.90;;;21.47;;
20497;SDS011;10407;53.238;10.448;2023-01-29T11:54:42;102.23;;;20.60;;
20497;SDS011;10407;53.238;10.448;2023-01-29T11:57:14;101.93;;;20.00;;
20497;SDS011;10407;53.238;10.448;2023-01-29T11:59:41;101.87;;;20.30;;
20497;SDS011;10407;53.238;10.448;2023-01-29T12:02:18;101.80;;;20.23;;
20497;SDS011;10407;53.238;10.448;2023-01-29T12:04:46;102.30;;;19.47;;
20497;SDS011;10407;53.238;10.448;2023-01-29T12:07:14;110.53;;;20.90;;
20497;SDS011;10407;53.238;10.448;2023-01-29T12:09:48;102.20;;;20.27;;
20497;SDS011;10407;53.238;10.448;2023-01-29T12:12:26;97.17;;;18.00;;
20497;SDS011;10407;53.238;10.448;2023-01-29T12:15:15;102.17;;;20.60;;
20497;SDS011;10407;53.238;10.448;2023-01-29T12:17:50;99.90;;;20.20;;
20497;SDS011;10407;53.238;10.448;2023-01-29T12:20:21;99.13;;;19.57;;
20497;SDS011;10407;53.238;10.448;2023-01-29T12:28:35;96.50;;;18.10;;
20497;SDS011;10407;53.238;10.448;2023-01-29T12:31:35;98.07;;;18.60;;
20497;SDS011;10407;53.238;10.448;2023-01-29T12:35:02;101.73;;;19.10;;
20497;SDS011;10407;53.238;10.448;2023-01-29T12:40:00;100.17;;;19.47;;
20497;SDS011;10407;53.238;10.448;2023-01-29T12:42:28;99.43;;;17.93;;
20497;SDS011;10407;53.238;10.448;2023-01-29T12:44:58;103.73;;;18.93;;
20497;SDS011;10407;53.238;10.448;2023-01-29T12:47:37;100.37;;;19.23;;
20497;SDS011;10407;53.238;10.448;2023-01-29T12:50:18;95.97;;;17.80;;
20497;SDS011;10407;53.238;10.448;2023-01-29T12:52:51;98.00;;;18.67;;
20497;SDS011;10407;53.238;10.448;2023-01-29T13:01:05;100.83;;;19.60;;
20497;SDS011;10407;53.238;10.448;2023-01-29T13:03:54;104.10;;;19.83;;
20497;SDS011;10407;53.238;10.448;2023-01-29T13:06:39;101.37;;;19.83;;
20497;SDS011;10407;53.238;10.448;2023-01-29T13:09:10;101.77;;;20.00;;
20497;SDS011;10407;53.238;10.448;2023-01-29T13:14:15;97.57;;;18.30;;
20497;SDS011;10407;53.238;10.448;2023-01-29T13:16:47;98.20;;;19.90;;
20497;SDS011;10407;53.238;10.448;2023-01-29T13:19:19;102.97;;;20.50;;
20497;SDS011;10407;53.238;10.448;2023-01-29T13:22:02;106.50;;;20.77;;
20497;SDS011;10407;53.238;10.448;2023-01-29T13:24:38;102.60;;;21.13;;
20497;SDS011;10407;53.238;10.448;2023-01-29T13:27:05;103.00;;;20.33;;
20497;SDS011;10407;53.238;10.448;2023-01-29T13:29:35;97.40;;;19.40;;
20497;SDS011;10407;53.238;10.448;2023-01-29T13:32:03;108.50;;;21.90;;
20497;SDS011;10407;53.238;10.448;2023-01-29T13:34:34;100.97;;;18.17;;
20497;SDS011;10407;53.238;10.448;2023-01-29T13:37:15;106.83;;;20.77;;
20497;SDS011;10407;53.238;10.448;2023-01-29T13:39:39;100.17;;;19.20;;
20497;SDS011;10407;53.238;10.448;2023-01-29T13:44:48;101.27;;;20.50;;
20497;SDS011;10407;53.238;10.448;2023-01-29T13:47:23;100.90;;;19.43;;
20497;SDS011;10407;53.238;10.448;2023-01-29T13:50:03;99.10;;;19.00;;
20497;SDS011;10407;53.238;10.448;2023-01-29T13:52:35;103.03;;;20.20;;
20497;SDS011;10407;53.238;10.448;2023-01-29T13:57:49;100.87;;;19.30;;
20497;SDS011;10407;53.238;10.448;2023-01-29T14:13:48;102.90;;;20.60;;
20497;SDS011;10407;53.238;10.448;2023-01-29T14:21:36;102.93;;;20.60;;
20497;SDS011;10407;53.238;10.448;2023-01-29T14:24:10;100.27;;;19.20;;
20497;SDS011;10407;53.238;10.448;2023-01-29T14:26:44;102.87;;;19.10;;
20497;SDS011;10407;53.238;10.448;2023-01-29T14:34:41;105.50;;;21.60;;
20497;SDS011;10407;53.238;10.448;2023-01-29T14:39:48;107.97;;;21.37;;
20497;SDS011;10407;53.238;10.448;2023-01-29T14:42:26;106.50;;;21.90;;
20497;SDS011;10407;53.238;10.448;2023-01-29T14:53:04;110.13;;;22.70;;
20497;SDS011;10407;53.238;10.448;2023-01-29T14:55:49;104.27;;;21.87;;
20497;SDS011;10407;53.238;10.448;2023-01-29T15:01:01;104.40;;;21.73;;
20497;SDS011;10407;53.238;10.448;2023-01-29T15:03:50;102.40;;;21.10;;
20497;SDS011;10407;53.238;10.448;2023-01-29T15:06:54;101.70;;;20.37;;
20497;SDS011;10407;53.238;10.448;2023-01-29T15:08:59;106.60;;;21.47;;
20497;SDS011;10407;53.238;10.448;2023-01-29T15:11:47;103.13;;;20.67;;
20497;SDS011;10407;53.238;10.448;2023-01-29T15:14:32;104.73;;;21.20;;
20497;SDS011;10407;53.238;10.448;2023-01-29T15:17:03;108.50;;;20.53;;
20497;SDS011;10407;53.238;10.448;2023-01-29T15:19:47;107.87;;;19.80;;
20497;SDS011;10407;53.238;10.448;2023-01-29T15:22:16;104.70;;;20.90;;
20497;SDS011;10407;53.238;10.448;2023-01-29T15:24:46;106.03;;;20.90;;
20497;SDS011;10407;53.238;10.448;2023-01-29T15:27:16;107.53;;;21.37;;
20497;SDS011;10407;53.238;10.448;2023-01-29T15:29:47;111.57;;;22.63;;
20497;SDS011;10407;53.238;10.448;2023-01-29T15:32:26;105.83;;;22.07;;
20497;SDS011;10407;53.238;10.448;2023-01-29T15:34:56;103.77;;;20.87;;
20497;SDS011;10407;53.238;10.448;2023-01-29T15:37:26;112.47;;;22.60;;
20497;SDS011;10407;53.238;10.448;2023-01-29T15:39:55;105.10;;;21.83;;
20497;SDS011;10407;53.238;10.448;2023-01-29T15:42:25;108.07;;;21.90;;
20497;SDS011;10407;53.238;10.448;2023-01-29T15:44:54;105.90;;;22.07;;
20497;SDS011;10407;53.238;10.448;2023-01-29T15:47:24;103.50;;;20.67;;
20497;SDS011;10407;53.238;10.448;2023-01-29T15:49:53;108.50;;;22.50;;
20497;SDS011;10407;53.238;10.448;2023-01-29T15:52:25;108.73;;;22.23;;
20497;SDS011;10407;53.238;10.448;2023-01-29T15:55:00;108.57;;;21.37;;
20497;SDS011;10407;53.238;10.448;2023-01-29T15:57:28;111.17;;;23.67;;
20497;SDS011;10407;53.238;10.448;2023-01-29T15:59:59;115.00;;;24.13;;
20497;SDS011;10407;53.238;10.448;2023-01-29T16:02:35;109.13;;;23.60;;
20497;SDS011;10407;53.238;10.448;2023-01-29T16:05:04;109.50;;;22.53;;
20497;SDS011;10407;53.238;10.448;2023-01-29T16:07:33;111.57;;;23.07;;
20497;SDS011;10407;53.238;10.448;2023-01-29T16:10:01;110.67;;;23.33;;
20497;SDS011;10407;53.238;10.448;2023-01-29T16:12:30;110.83;;;23.77;;
20497;SDS011;10407;53.238;10.448;2023-01-29T16:15:00;111.50;;;23.50;;
20497;SDS011;10407;53.238;10.448;2023-01-29T16:17:30;117.67;;;24.87;;
20497;SDS011;10407;53.238;10.448;2023-01-29T16:20:02;110.43;;;22.77;;
20497;SDS011;10407;53.238;10.448;2023-01-29T16:22:36;107.70;;;23.90;;
20497;SDS011;10407;53.238;10.448;2023-01-29T16:25:09;110.80;;;23.17;;
20497;SDS011;10407;53.238;10.448;2023-01-29T16:27:32;107.37;;;21.50;;
20497;SDS011;10407;53.238;10.448;2023-01-29T16:30:00;106.67;;;22.37;;
20497;SDS011;10407;53.238;10.448;2023-01-29T16:32:29;109.37;;;23.17;;
20497;SDS011;10407;53.238;10.448;2023-01-29T16:34:57;110.17;;;22.87;;
20497;SDS011;10407;53.238;10.448;2023-01-29T16:37:29;108.90;;;23.00;;
20497;SDS011;10407;53.238;10.448;2023-01-29T16:40:09;116.80;;;24.83;;
20497;SDS011;10407;53.238;10.448;2023-01-29T16:42:40;112.97;;;24.13;;
20497;SDS011;10407;53.238;10.448;2023-01-29T16:45:27;110.70;;;24.47;;
20497;SDS011;10407;53.238;10.448;2023-01-29T16:47:59;112.30;;;25.27;;
20497;SDS011;10407;53.238;10.448;2023-01-29T16:50:32;110.97;;;23.83;;
20497;SDS011;10407;53.238;10.448;2023-01-29T16:53:19;114.37;;;24.37;;
20497;SDS011;10407;53.238;10.448;2023-01-29T16:55:49;109.50;;;22.60;;